Date,TemperatureHighF,TemperatureAvgF,TemperatureLowF,DewpointHighF,DewpointAvgF,DewpointLowF,HumidityHigh,HumidityAvg,HumidityLow,PressureMaxIn,PressureMinIn,WindSpeedMaxMPH,WindSpeedAvgMPH,GustSpeedMaxMPH,PrecipitationSumIn
2013-1-1,36,34,31,35,32,25,100,94,78,30.05,29.94,8,1,12,0.15
2013-1-2,34,27,21,25,18,15,89,70,51,30.19,30.03,10,2,14,0.00
2013-1-3,40,28,19,25,22,18,95,79,48,30.25,30.14,6,0,14,0.00
2013-1-4,38,33,27,24,22,20,84,66,55,30.30,30.22,6,1,14,0.00
2013-1-5,42,31,20,30,25,18,96,79,48,30.38,30.12,5,0,10,0.00
2013-1-6,44,39,32,34,29,24,83,68,57,30.25,29.96,14,2,23,0.00
2013-1-7,39,31,23,26,24,22,95,77,57,30.44,30.23,9,1,15,0.00
2013-1-8,54,35,20,36,26,19,96,75,35,30.34,30.21,3,0,12,0.01
2013-1-9,52,38,27,49,36,26,100,95,83,30.46,30.20,2,0,10,0.13
2013-1-10,47,37,29,40,35,29,100,95,73,30.51,30.13,3,0,7,0.01
2013-1-11,61,52,39,59,49,38,100,90,61,30.13,29.90,12,2,20,0.32
2013-1-12,68,53,39,64,52,39,100,97,80,30.02,29.85,2,0,5,0.01
2013-1-13,63,55,44,60,54,44,100,97,82,29.92,29.79,9,0,16,0.39
2013-1-14,59,40,34,59,35,28,100,83,69,30.33,29.86,17,5,27,0.08
2013-1-15,38,35,32,30,29,28,89,77,71,30.28,29.97,123,3,16,0.01
2013-1-16,37,37,37,29,29,29,73,73,73,29.98,29.79,0,0,255,0.00
2013-1-17,36,34,30,31,30,28,96,88,76,30.23,30.04,7,1,10,0.00
2013-1-18,37,29,21,29,19,12,95,66,43,30.50,30.23,15,2,22,0.00
2013-1-19,56,39,22,29,23,20,96,59,27,30.26,29.88,9,1,21,0.00
2013-1-20,47,40,25,33,21,3,81,49,21,30.10,29.87,16,4,30,0.00
2013-1-21,36,26,17,22,16,4,89,66,43,30.12,29.93,15,4,28,0.00
2013-1-22,20,15,10,6,0,-3,70,52,37,30.31,30.13,14,4,23,0.00
2013-1-23,24,18,9,17,8,-3,87,68,31,30.32,30.03,9,1,15,0.00
2013-1-24,24,20,13,17,10,0,89,68,36,30.51,30.02,14,4,20,0.00
2013-1-25,25,21,14,23,15,5,92,79,54,30.45,29.98,5,0,10,0.00
2013-1-26,31,28,25,25,22,20,93,78,63,30.39,30.11,9,2,16,0.02
2013-1-27,38,28,15,31,22,13,95,78,50,30.44,30.23,3,0,10,0.12
2013-1-28,59,46,33,54,44,32,100,94,66,30.22,30.00,8,1,18,0.44
2013-1-29,72,58,44,56,51,44,100,81,48,30.02,29.69,8,1,17,0.00
2013-1-30,73,58,43,59,53,40,100,85,53,29.69,29.24,23,4,33,1.29
2013-1-31,43,31,28,40,23,16,91,70,56,29.88,29.34,22,5,33,0.02
2013-2-1,29,15,8,27,6,0,95,68,47,30.37,29.81,21,5,35,0.00
2013-2-2,30,20,7,28,17,4,96,87,62,30.34,29.96,7,1,13,0.00
2013-2-3,30,28,25,28,22,17,94,81,64,30.07,29.85,9,2,20,0.02
2013-2-4,36,28,16,34,22,14,100,80,56,30.08,29.80,8,1,13,0.03
2013-2-5,40,36,34,40,36,34,100,97,84,29.93,29.79,8,1,16,0.29
2013-2-6,40,35,26,34,30,26,98,83,66,30.23,29.93,7,1,12,0.00
2013-2-7,59,34,27,36,31,26,99,90,37,30.22,29.85,3,0,8,0.01
2013-2-8,45,38,31,43,32,23,98,82,69,30.20,29.73,16,5,31,0.12
2013-2-9,42,31,24,23,20,17,89,64,39,30.36,30.21,13,2,22,0.00
2013-2-10,60,40,22,43,25,19,96,65,20,30.24,29.81,9,2,16,0.05
2013-2-11,62,52,45,50,36,20,98,59,22,29.95,29.73,14,4,35,0.01
2013-2-12,51,41,29,28,26,20,88,56,29,30.06,29.84,12,2,20,0.00
2013-2-13,42,34,28,34,30,25,98,86,58,29.86,29.60,14,2,22,0.06
2013-2-14,51,40,27,35,32,26,100,75,49,29.92,29.82,14,2,22,0.00
2013-2-15,40,35,31,36,33,29,99,92,75,30.03,29.87,7,0,13,0.20
2013-2-16,32,29,22,31,20,12,98,72,44,30.02,29.91,14,3,23,0.02
2013-2-17,28,21,15,13,8,2,86,58,40,30.24,29.99,15,4,25,0.00
2013-2-18,55,30,12,32,20,9,92,70,36,30.25,29.78,9,2,16,0.02
2013-2-19,49,41,31,40,29,15,87,63,41,30.00,29.69,14,5,30,0.06
2013-2-20,32,27,20,19,15,11,78,60,46,30.24,30.00,15,5,25,0.00
2013-2-21,31,24,16,19,16,12,87,70,56,30.32,30.12,8,1,12,0.00
2013-2-22,57,41,30,46,34,18,100,80,57,30.14,29.85,9,1,14,0.02
2013-2-23,54,42,30,42,36,29,100,83,45,29.91,29.78,7,1,20,0.00
2013-2-24,42,32,24,29,25,20,99,76,47,30.12,29.83,13,3,21,0.00
2013-2-25,46,31,19,26,22,17,94,71,36,30.16,29.90,8,1,14,0.00
2013-2-26,50,41,27,46,37,24,99,87,61,29.91,29.39,8,1,17,0.59
2013-2-27,45,41,35,43,36,31,98,84,67,29.69,29.49,8,1,20,0.16
2013-2-28,36,35,33,34,32,30,96,88,81,29.82,29.62,8,1,16,0.08
2013-3-1,36,34,31,34,29,23,98,84,71,29.92,29.82,8,3,14,0.04
2013-3-2,32,30,28,25,22,20,87,74,64,29.96,29.89,10,5,16,0.00
2013-3-3,30,28,26,24,21,14,90,75,53,30.00,29.94,12,2,18,0.02
2013-3-4,44,32,21,25,18,14,83,58,31,30.13,29.99,10,1,18,0.00
2013-3-5,51,42,31,43,38,25,96,84,68,30.00,29.43,7,2,20,0.62
2013-3-6,38,35,31,33,31,28,95,84,73,30.12,29.54,6,2,18,0.11
2013-3-7,41,36,32,31,30,28,90,79,62,30.27,30.12,7,2,12,0.00
2013-3-8,47,37,28,30,27,24,97,71,43,30.37,30.25,14,2,20,0.00
2013-3-9,63,40,23,34,28,22,98,69,23,30.34,30.06,5,0,9,0.00
2013-3-10,76,57,37,42,34,28,90,51,17,30.07,29.87,9,2,20,0.00
2013-3-11,64,58,46,55,41,31,97,55,31,29.87,29.58,10,4,23,0.35
2013-3-12,46,40,33,42,33,29,94,77,62,29.97,29.76,9,2,20,0.02
2013-3-13,37,33,29,32,26,17,95,78,47,30.20,29.93,16,4,27,0.01
2013-3-14,44,33,25,25,19,13,86,60,29,30.29,30.13,13,3,24,0.00
2013-3-15,59,41,23,43,30,21,95,68,40,30.14,29.78,8,1,21,0.01
2013-3-16,65,50,43,55,45,37,100,84,59,29.90,29.53,16,4,26,0.20
2013-3-17,43,36,33,37,33,31,100,91,78,30.09,29.89,8,2,14,0.37
2013-3-18,50,42,34,48,41,34,100,93,78,29.98,29.57,15,3,24,1.16
2013-3-19,50,44,35,50,25,7,100,53,20,30.00,29.66,18,4,40,0.01
2013-3-20,47,38,28,22,17,13,73,44,27,30.00,29.75,16,4,31,0.00
2013-3-21,31,26,21,19,13,8,87,60,44,29.98,29.85,18,4,24,0.00
2013-3-22,44,30,17,22,16,11,91,59,27,30.01,29.93,13,2,24,0.00
2013-3-23,52,34,22,28,22,17,92,65,27,30.01,29.85,7,1,13,0.00
2013-3-24,42,36,28,38,30,22,98,80,49,29.84,29.32,8,1,13,0.63
2013-3-25,42,36,34,41,33,29,96,89,76,29.77,29.32,9,2,24,0.16
2013-3-26,42,37,34,34,31,27,94,80,57,30.11,29.77,14,4,21,0.04
2013-3-27,43,38,33,30,28,24,77,67,49,30.20,30.10,13,3,23,0.00
2013-3-28,49,39,26,32,26,23,95,62,36,30.24,30.18,14,3,21,0.00
2013-3-29,55,41,26,36,29,24,98,66,31,30.25,30.13,12,2,20,0.00
2013-3-30,56,39,35,36,34,27,94,82,36,30.18,30.09,3,0,7,0.00
2013-11-8,50,40,30,-100,-100,-100,0,0,100,30.28,30.21,8,2,17,0.00
2013-11-9,63,46,29,-100,-100,-100,0,0,100,30.22,29.98,5,1,12,0.00
2013-11-10,54,42,30,-100,-100,-100,0,0,100,30.27,30.01,11,2,14,0.00
2013-11-11,58,42,27,-100,-100,-100,0,0,100,30.26,29.98,10,1,11,0.00
2013-11-12,50,34,27,-100,-100,-100,0,0,100,30.51,30.01,14,6,18,0.06
2013-11-13,39,32,25,-100,-100,-100,0,0,100,30.56,30.38,5,1,6,0.00
2013-11-14,54,34,21,-100,-100,-100,0,0,100,30.38,30.15,4,1,5,0.01
2013-11-15,59,37,26,-100,-100,-100,0,0,100,30.20,30.09,4,1,7,0.00
2013-11-17,68,61,56,-100,-100,-100,0,0,100,29.89,29.53,11,3,14,0.51
2013-11-18,58,51,39,-100,-100,-100,0,0,100,30.06,29.70,11,3,16,0.01
2013-11-19,41,36,28,-100,-100,-100,0,0,100,30.30,30.06,6,1,9,0.00
2013-11-20,54,30,24,-100,-100,-100,0,0,100,30.33,30.23,4,0,7,0.01
2013-12-19,59,45,35,31,29,24,86,58,27,30.01,29.98,3,0,6,0.00
2013-12-20,62,50,33,52,39,29,94,70,35,29.99,29.86,3,0,7,0.09
2013-12-21,73,61,54,60,55,50,97,82,57,29.86,29.55,6,0,12,0.36
2013-12-22,73,60,52,60,55,51,96,86,61,29.90,29.49,12,3,20,0.60
2013-12-23,52,40,33,51,36,25,97,85,68,30.27,29.90,13,3,16,0.09
2013-12-24,33,25,14,27,18,11,90,75,54,30.51,30.24,14,4,16,0.00
2013-12-25,37,25,14,25,17,11,91,73,40,30.49,30.17,4,1,11,0.00
2013-12-26,44,35,24,28,24,20,91,66,38,30.33,30.12,7,2,14,0.00
2013-12-27,50,32,21,30,23,19,94,75,33,30.40,30.28,3,0,7,0.00
2013-12-28,54,35,22,35,26,20,94,74,35,30.29,29.99,3,0,6,0.01
2013-12-29,43,41,37,42,39,33,96,93,85,29.99,29.67,5,1,9,0.89
2013-12-30,42,34,31,40,29,24,93,83,67,30.14,29.86,10,3,14,0.04
2013-12-31,34,29,23,27,22,20,91,74,57,30.31,30.11,6,2,14,0.00
2014-1-1,51,32,21,30,25,19,93,78,40,30.29,29.99,2,0,5,0.00
2014-1-2,36,29,17,33,27,14,95,91,79,30.02,29.61,14,3,16,0.09